createdAt,value
2018-03-20T00:01:51.644Z,83.78
2018-03-20T00:04:19.775Z,67.45
2018-03-20T00:06:47.086Z,99.20
2018-03-20T00:09:14.432Z,34.05
2018-03-20T00:11:41.755Z,144.93
2018-03-20T00:14:09.067Z,90.60
2018-03-20T00:16:36.431Z,34.47
2018-03-20T00:19:04.143Z,79.85
2018-03-20T00:21:32.206Z,35.30
2018-03-20T00:23:59.499Z,146.18
2018-03-20T00:26:26.806Z,35.55
2018-03-20T00:28:54.087Z,98.65
2018-03-20T00:31:22.123Z,36.75
2018-03-20T00:33:49.484Z,99.43
2018-03-20T00:36:16.800Z,39.78
2018-03-20T00:38:44.146Z,36.08
2018-03-20T00:41:11.473Z,37.63
2018-03-20T00:43:39.544Z,82.80
2018-03-20T00:46:06.842Z,35.70
2018-03-20T00:48:34.210Z,110.65
2018-03-20T00:51:01.629Z,40.20
2018-03-20T00:53:28.962Z,60.50
2018-03-20T00:55:56.255Z,140.32
2018-03-20T00:58:23.739Z,140.57
2018-03-20T01:00:51.040Z,169.18
2018-03-20T01:03:18.407Z,142.18
2018-03-20T01:05:45.747Z,141.73
2018-03-20T01:08:13.172Z,150.00
2018-03-20T01:10:40.483Z,76.50
2018-03-20T01:13:08.811Z,36.08
2018-03-20T01:15:36.898Z,36.08
2018-03-20T01:18:04.926Z,35.95
2018-03-20T01:20:32.267Z,104.03
2018-03-20T01:22:59.587Z,96.78
2018-03-20T01:25:26.881Z,98.60
2018-03-20T01:27:54.233Z,51.92
2018-03-20T01:30:21.533Z,96.65
2018-03-20T01:32:49.594Z,46.80
2018-03-20T01:35:16.925Z,105.70
2018-03-20T01:37:44.260Z,125.53
2018-03-20T01:40:11.542Z,35.85
2018-03-20T01:42:38.854Z,35.90
2018-03-20T01:45:06.146Z,385.17
2018-03-20T01:47:33.491Z,102.85
2018-03-20T01:50:00.876Z,51.92
2018-03-20T01:52:28.191Z,105.78
2018-03-20T01:54:55.507Z,93.35
2018-03-20T01:57:22.835Z,56.65
2018-03-20T01:59:50.115Z,39.17
2018-03-20T02:02:17.439Z,36.72
2018-03-20T02:04:45.538Z,34.72
2018-03-20T02:07:12.895Z,36.78
2018-03-20T02:09:41.050Z,35.53
2018-03-20T02:12:08.371Z,35.80
2018-03-20T02:14:36.464Z,36.17
2018-03-20T02:17:04.571Z,36.17
2018-03-20T02:19:31.914Z,36.72
2018-03-20T02:21:59.270Z,80.00
2018-03-20T02:24:26.606Z,36.70
2018-03-20T02:26:54.696Z,36.67
2018-03-20T02:29:22.013Z,99.30
2018-03-20T02:31:49.342Z,38.60
2018-03-20T02:34:16.670Z,36.22
2018-03-20T02:36:44.011Z,37.70
2018-03-20T02:39:11.347Z,39.88
2018-03-20T02:41:38.723Z,52.25
2018-03-20T02:44:06.016Z,95.53
2018-03-20T02:46:34.234Z,57.80
2018-03-20T02:49:01.553Z,103.78
2018-03-20T02:51:28.850Z,38.22
2018-03-20T02:53:57.066Z,34.92
2018-03-20T02:56:24.491Z,37.92
2018-03-20T02:58:52.487Z,36.35
2018-03-20T03:01:19.807Z,149.73
2018-03-20T03:03:47.143Z,61.37
2018-03-20T03:06:14.525Z,75.03
2018-03-20T03:08:41.920Z,89.50
2018-03-20T03:11:09.247Z,225.77
2018-03-20T03:13:36.622Z,145.27
2018-03-20T03:16:04.729Z,124.25
2018-03-20T03:18:32.183Z,580.80
2018-03-20T03:20:59.479Z,852.95
2018-03-20T03:23:26.814Z,483.33
2018-03-20T03:25:54.169Z,646.12
2018-03-20T03:28:21.508Z,48.92
2018-03-20T03:30:49.028Z,70.70
2018-03-20T03:33:16.340Z,104.00
2018-03-20T03:35:43.678Z,153.65
2018-03-20T03:38:10.997Z,793.55
2018-03-20T03:40:38.329Z,683.00
2018-03-20T03:43:05.699Z,690.10
2018-03-20T03:45:33.019Z,582.53
2018-03-20T03:48:00.332Z,657.80
2018-03-20T03:50:28.761Z,789.53
2018-03-20T03:52:56.122Z,882.13
2018-03-20T03:55:23.447Z,774.30
2018-03-20T03:57:50.779Z,195.48
2018-03-20T04:00:18.099Z,832.75
2018-03-20T04:02:46.182Z,317.50
2018-03-20T04:05:13.486Z,656.40
2018-03-20T04:07:40.835Z,642.50
2018-03-20T04:10:08.182Z,668.95
2018-03-20T04:12:35.538Z,698.92
2018-03-20T04:15:02.987Z,649.20
2018-03-20T04:17:30.303Z,664.87
2018-03-20T04:20:06.029Z,703.22
2018-03-20T04:22:36.497Z,680.65
2018-03-20T04:25:04.154Z,795.50
2018-03-20T04:27:32.203Z,767.90
2018-03-20T04:30:00.276Z,714.50
2018-03-20T04:32:27.647Z,703.45
2018-03-20T04:34:54.959Z,782.85
2018-03-20T04:37:22.294Z,747.13
2018-03-20T04:39:49.586Z,713.15
2018-03-20T04:42:17.248Z,740.28
2018-03-20T04:44:44.574Z,745.60
2018-03-20T04:47:11.861Z,717.35
2018-03-20T04:49:39.971Z,123.00
2018-03-20T04:52:07.261Z,152.07
2018-03-20T04:54:34.570Z,395.55
2018-03-20T04:57:02.283Z,248.50
2018-03-20T04:59:29.582Z,869.08
2018-03-20T05:01:56.898Z,499.62
2018-03-20T05:04:24.680Z,828.95
2018-03-20T05:06:51.998Z,715.08
2018-03-20T05:09:19.297Z,356.95
2018-03-20T05:11:46.719Z,96.40
2018-03-20T05:14:14.063Z,103.93
2018-03-20T05:16:41.479Z,46.80
2018-03-20T05:19:15.002Z,133.00
2018-03-20T05:21:49.180Z,250.85
2018-03-20T05:24:16.778Z,129.55
2018-03-20T05:26:44.138Z,294.13
2018-03-20T05:29:11.519Z,128.05
2018-03-20T05:31:38.912Z,138.15
2018-03-20T05:34:06.288Z,137.95
2018-03-20T05:36:33.635Z,482.92
2018-03-20T05:39:01.013Z,148.68
2018-03-20T05:41:29.355Z,828.20
2018-03-20T05:43:56.720Z,795.60
2018-03-20T05:46:30.150Z,726.30
2018-03-20T06:02:19.936Z,858.78
2018-03-20T06:04:47.275Z,838.95
2018-03-20T06:07:14.703Z,838.75
2018-03-20T06:09:42.182Z,818.80
2018-03-20T06:12:09.542Z,714.80
2018-03-20T06:14:36.878Z,761.55
2018-03-20T06:17:04.232Z,617.80
2018-03-20T06:19:31.589Z,651.10
2018-03-20T06:21:58.919Z,694.53
2018-03-20T06:24:26.271Z,716.08
2018-03-20T06:26:53.603Z,687.35
2018-03-20T06:29:20.984Z,672.25
2018-03-20T06:31:48.307Z,616.85
2018-03-20T06:34:15.682Z,613.08
2018-03-20T06:36:43.803Z,500.90
2018-03-20T06:39:11.182Z,415.27
2018-03-20T06:41:38.505Z,466.77
2018-03-20T06:44:05.960Z,314.02
2018-03-20T06:46:33.279Z,110.65
2018-03-20T06:49:00.630Z,306.08
2018-03-20T06:51:28.018Z,464.42
2018-03-20T06:53:57.554Z,383.27
2018-03-20T06:56:25.038Z,240.98
2018-03-20T06:58:52.365Z,282.12
2018-03-20T07:01:19.683Z,339.05
2018-03-20T07:03:47.091Z,75.95
2018-03-20T07:06:14.577Z,72.50
2018-03-20T07:08:41.844Z,70.37
2018-03-20T07:11:09.226Z,135.27
2018-03-20T07:13:36.564Z,89.03
2018-03-20T07:16:05.179Z,83.30
2018-03-20T07:18:32.606Z,84.03
2018-03-20T07:20:59.936Z,54.95
2018-03-20T07:23:27.263Z,36.50
2018-03-20T07:25:54.564Z,39.67
2018-03-20T07:28:21.979Z,49.10
2018-03-20T07:30:49.319Z,224.02
2018-03-20T07:33:16.666Z,198.65
2018-03-20T07:35:44.008Z,121.15
2018-03-20T07:38:11.307Z,106.25
2018-03-20T07:40:38.650Z,168.82
2018-03-20T07:43:05.943Z,387.38
2018-03-20T07:45:33.287Z,464.73
2018-03-20T07:48:00.674Z,136.90
2018-03-20T07:50:28.008Z,221.73
2018-03-20T07:52:55.384Z,210.35
2018-03-20T07:55:22.976Z,83.97
2018-03-20T07:57:50.302Z,235.45
2018-03-20T08:00:17.605Z,48.63
2018-03-20T08:02:45.148Z,46.65
2018-03-20T08:05:12.495Z,13.55
2018-03-20T08:07:39.836Z,6.45
2018-03-20T08:10:07.172Z,4.20
2018-03-20T08:12:34.793Z,26.58
2018-03-20T08:15:02.199Z,35.97
2018-03-20T08:17:30.071Z,51.33
2018-03-20T08:19:57.417Z,8.23
2018-03-20T08:22:24.763Z,16.27
2018-03-20T08:24:52.533Z,13.20
2018-03-20T08:27:19.886Z,1.05
2018-03-20T08:29:47.203Z,27.15
2018-03-20T08:32:14.539Z,367.05
2018-03-20T08:34:41.861Z,37.78
2018-03-20T08:37:09.960Z,391.58
2018-03-20T08:39:38.187Z,630.47
2018-03-20T08:42:04.818Z,45.40
2018-03-20T08:44:31.416Z,20.55
2018-03-20T08:46:58.790Z,108.87
2018-03-20T08:49:25.430Z,121.13
2018-03-20T08:51:52.052Z,128.68
2018-03-20T08:54:18.652Z,135.63
2018-03-20T08:56:45.472Z,118.00
2018-03-20T08:59:12.261Z,114.30
2018-03-20T09:01:39.584Z,121.22
2018-03-20T09:04:06.248Z,170.55
2018-03-20T09:06:32.858Z,115.93
2018-03-20T09:08:59.422Z,136.88
2018-03-20T09:11:27.049Z,155.12
2018-03-20T09:13:53.847Z,135.15
2018-03-20T09:16:20.399Z,147.87
2018-03-20T09:18:46.995Z,167.77
2018-03-20T09:21:13.583Z,169.37
2018-03-20T09:23:40.271Z,170.35
2018-03-20T09:26:06.871Z,157.85
2018-03-20T09:28:33.463Z,105.80
2018-03-20T09:31:01.277Z,115.88
2018-03-20T09:33:27.915Z,99.97
2018-03-20T09:35:54.503Z,95.57
2018-03-20T09:38:21.090Z,99.32
2018-03-20T09:40:47.657Z,115.65
2018-03-20T09:43:14.961Z,120.97
2018-03-20T09:45:42.328Z,178.38
2018-03-20T09:48:09.275Z,144.27
2018-03-20T09:50:36.230Z,140.23
2018-03-20T09:53:02.810Z,116.43
2018-03-20T09:55:30.141Z,129.43
2018-03-20T09:57:57.479Z,119.72
2018-03-20T10:00:26.565Z,158.10
2018-03-20T10:02:53.146Z,146.25
2018-03-20T10:05:20.455Z,117.32
2018-03-20T10:07:47.807Z,174.23
2018-03-20T10:10:14.842Z,110.82
2018-03-20T10:12:41.811Z,112.53
2018-03-20T10:15:08.755Z,114.28
2018-03-20T10:17:35.727Z,111.03
2018-03-20T10:20:02.761Z,114.15
2018-03-20T10:22:29.830Z,114.65
2018-03-20T10:24:56.835Z,112.97
2018-03-20T10:27:23.773Z,114.03
2018-03-20T10:29:50.754Z,111.50
2018-03-20T10:32:17.735Z,107.20
2018-03-20T10:34:44.301Z,120.10
2018-03-20T10:37:10.935Z,104.03
2018-03-20T10:39:37.599Z,102.18
2018-03-20T10:42:04.931Z,106.37
2018-03-20T10:44:32.252Z,103.70
2018-03-20T10:46:58.910Z,104.72
2018-03-20T10:49:26.304Z,109.82
2018-03-20T10:51:53.658Z,99.05
2018-03-20T10:54:20.249Z,98.80
2018-03-20T10:56:47.368Z,104.25
2018-03-20T10:59:15.268Z,108.50
2018-03-20T11:01:45.568Z,154.98
2018-03-20T11:04:12.942Z,159.87
2018-03-20T11:06:40.336Z,106.75
2018-03-20T11:09:07.666Z,119.22
2018-03-20T11:11:34.963Z,123.70
2018-03-20T11:14:01.948Z,103.07
2018-03-20T11:16:28.918Z,102.15
2018-03-20T11:18:55.890Z,104.03
2018-03-20T11:21:23.060Z,107.60
2018-03-20T11:23:49.651Z,134.18
2018-03-20T11:26:16.992Z,122.65
2018-03-20T11:28:43.619Z,119.25
2018-03-20T11:31:10.326Z,115.25
2018-03-20T11:33:36.969Z,118.55
2018-03-20T11:36:03.571Z,111.30
2018-03-20T11:38:30.164Z,114.57
2018-03-20T11:40:56.776Z,116.65
2018-03-20T11:43:23.379Z,106.05
2018-03-20T11:45:49.997Z,108.57
2018-03-20T11:48:17.332Z,104.60
2018-03-20T11:50:44.163Z,100.07
2018-03-20T11:53:11.693Z,102.93
2018-03-20T11:55:39.022Z,97.35
2018-03-20T11:58:06.649Z,97.37
2018-03-20T12:00:33.322Z,103.32
2018-03-20T12:02:59.951Z,98.97
2018-03-20T12:05:26.567Z,96.63
2018-03-20T12:07:54.135Z,101.18
2018-03-20T12:10:20.796Z,100.18
2018-03-20T12:12:48.143Z,82.93
2018-03-20T12:15:15.612Z,88.75
2018-03-20T12:17:42.209Z,87.97
2018-03-20T12:20:08.807Z,85.30
2018-03-20T12:22:35.810Z,84.03
2018-03-20T12:25:03.163Z,94.30
2018-03-20T12:27:29.739Z,95.95
2018-03-20T12:29:56.378Z,92.20
2018-03-20T12:32:23.020Z,92.57
2018-03-20T12:34:49.771Z,89.32
2018-03-20T12:37:16.360Z,90.10
2018-03-20T12:39:43.733Z,92.53
2018-03-20T12:42:11.078Z,91.90
2018-03-20T12:44:37.694Z,88.82
2018-03-20T12:47:05.425Z,90.30
2018-03-20T12:49:32.050Z,82.28
2018-03-20T12:51:58.679Z,80.70
2018-03-20T12:54:25.287Z,82.80
2018-03-20T12:56:52.206Z,86.65
2018-03-20T12:59:18.787Z,84.40
2018-03-20T13:01:45.410Z,89.03
2018-03-20T13:04:12.180Z,86.32
2018-03-20T13:06:38.755Z,89.32
2018-03-20T13:09:06.088Z,89.65
2018-03-20T13:11:32.734Z,85.95
2018-03-20T13:13:59.317Z,86.68
2018-03-20T13:16:26.308Z,85.32
2018-03-20T13:18:52.923Z,91.75
2018-03-20T13:21:19.526Z,89.30
2018-03-20T13:23:46.893Z,90.70
2018-03-20T13:26:14.271Z,93.87
2018-03-20T13:28:40.925Z,83.30
2018-03-20T13:31:07.587Z,79.20
2018-03-20T13:33:34.185Z,93.97
2018-03-20T13:36:01.570Z,94.87
2018-03-20T13:38:29.026Z,93.15
2018-03-20T13:40:55.650Z,92.68
2018-03-20T13:43:22.314Z,88.95
2018-03-20T13:45:49.004Z,93.40
2018-03-20T13:48:15.635Z,100.32
2018-03-20T13:50:42.240Z,94.75
2018-03-20T13:53:09.802Z,115.97
2018-03-20T13:55:36.559Z,90.28
2018-03-20T13:58:03.239Z,91.05
2018-03-20T14:00:29.866Z,87.62
2018-03-20T14:02:56.530Z,81.70
2018-03-20T14:05:23.139Z,80.35
2018-03-20T14:07:49.722Z,82.70
2018-03-20T14:10:17.292Z,82.40
2018-03-20T14:12:43.914Z,83.45
2018-03-20T14:15:10.536Z,85.47
2018-03-20T14:17:37.155Z,82.15
2018-03-20T14:20:03.810Z,77.55
2018-03-20T14:22:30.408Z,82.68
2018-03-20T14:24:57.103Z,80.18
2018-03-20T14:27:23.727Z,79.12
2018-03-20T14:29:50.667Z,74.12
2018-03-20T14:32:17.332Z,75.60
2018-03-20T14:34:43.948Z,74.37
2018-03-20T14:37:10.586Z,73.62
2018-03-20T14:39:37.178Z,76.47
2018-03-20T14:42:03.826Z,71.62
2018-03-20T14:44:30.427Z,74.07
2018-03-20T14:46:57.786Z,72.93
2018-03-20T14:49:25.162Z,73.90
2018-03-20T14:51:52.681Z,74.32
2018-03-20T14:54:19.948Z,72.90
2018-03-20T14:56:46.571Z,74.30
2018-03-20T14:59:14.883Z,75.30
2018-03-20T15:01:41.525Z,74.85
2018-03-20T15:04:08.099Z,71.35
2018-03-20T15:06:34.723Z,78.72
2018-03-20T15:09:01.320Z,74.65
2018-03-20T15:11:28.004Z,77.95
2018-03-20T15:13:55.294Z,74.50
2018-03-20T15:16:22.450Z,76.32
2018-03-20T15:18:49.085Z,80.55
2018-03-20T15:21:15.787Z,76.15
2018-03-20T15:23:42.370Z,59.70
2018-03-20T15:26:10.023Z,81.00
2018-03-20T15:28:36.665Z,75.05
2018-03-20T15:31:04.097Z,75.87
2018-03-20T15:33:30.747Z,78.82
2018-03-20T15:35:57.343Z,80.47
2018-03-20T15:38:23.974Z,79.32
2018-03-20T15:40:50.636Z,80.25
2018-03-20T15:43:17.243Z,79.18
2018-03-20T15:45:43.904Z,76.32
2018-03-20T15:48:10.536Z,78.62
2018-03-20T15:50:37.132Z,82.57
2018-03-20T15:53:05.437Z,98.20
2018-03-20T15:55:32.016Z,77.00
2018-03-20T15:57:58.617Z,80.53
2018-03-20T16:00:25.246Z,76.20
2018-03-20T16:02:51.941Z,80.03
2018-03-20T16:05:18.543Z,80.43
2018-03-20T16:07:45.162Z,78.78
2018-03-20T16:10:11.915Z,78.65
2018-03-20T16:12:38.517Z,83.40
2018-03-20T16:15:05.174Z,85.78
2018-03-20T16:17:31.947Z,96.32
2018-03-20T16:19:58.535Z,84.22
2018-03-20T16:22:25.182Z,83.78
2018-03-20T16:24:51.792Z,81.78
2018-03-20T16:27:18.377Z,76.85
2018-03-20T16:29:45.014Z,86.47
2018-03-20T16:32:11.641Z,85.22
2018-03-20T16:34:38.451Z,83.37
2018-03-20T16:37:05.065Z,86.53
2018-03-20T16:39:31.712Z,84.25
2018-03-20T16:41:58.734Z,82.80
2018-03-20T16:44:25.366Z,84.10
2018-03-20T16:46:51.980Z,83.72
2018-03-20T16:49:18.587Z,83.18
2018-03-20T16:51:45.927Z,76.22
2018-03-20T16:54:12.634Z,75.45
2018-03-20T16:56:39.279Z,67.18
2018-03-20T16:59:05.957Z,73.85
2018-03-20T17:01:32.556Z,71.87
2018-03-20T17:03:59.200Z,69.55
2018-03-20T17:06:26.902Z,66.32
2018-03-20T17:08:54.254Z,75.45
2018-03-20T17:11:20.927Z,92.55
2018-03-20T17:13:47.577Z,89.40
2018-03-20T17:16:14.522Z,84.50
2018-03-20T17:18:41.187Z,84.18
2018-03-20T17:21:07.876Z,84.43
2018-03-20T17:23:34.503Z,95.62
2018-03-20T17:26:01.689Z,90.12
2018-03-20T17:28:28.544Z,87.55
2018-03-20T17:30:55.909Z,154.75
2018-03-20T17:33:23.231Z,120.00
2018-03-20T17:35:50.874Z,86.65
2018-03-20T17:38:17.464Z,84.85
2018-03-20T17:40:44.071Z,83.40
2018-03-20T17:43:11.236Z,87.62
2018-03-20T17:45:45.048Z,101.68
2018-03-20T17:48:11.797Z,89.10
2018-03-20T17:50:39.194Z,88.10
2018-03-20T17:53:05.799Z,88.32
2018-03-20T17:55:33.140Z,86.05
2018-03-20T17:57:59.782Z,90.38
2018-03-20T18:00:26.451Z,89.87
2018-03-20T18:02:53.433Z,85.53
2018-03-20T18:05:20.027Z,105.75
2018-03-20T18:07:47.366Z,89.53
2018-03-20T18:10:13.981Z,90.97
2018-03-20T18:12:40.675Z,87.03
2018-03-20T18:15:07.496Z,87.30
2018-03-20T18:17:35.074Z,86.43
2018-03-20T18:20:01.759Z,90.38
2018-03-20T18:22:29.265Z,91.75
2018-03-20T18:24:56.374Z,95.65
2018-03-20T18:27:23.698Z,106.40
2018-03-20T18:29:50.354Z,89.28
2018-03-20T18:32:17.359Z,88.97
2018-03-20T18:34:44.213Z,95.35
2018-03-20T18:37:10.831Z,95.32
2018-03-20T18:39:37.428Z,90.47
2018-03-20T18:42:04.072Z,89.75
2018-03-20T18:44:30.696Z,90.60
2018-03-20T18:46:57.283Z,93.47
2018-03-20T18:49:23.929Z,97.05
2018-03-20T18:51:50.525Z,93.80
2018-03-20T18:54:17.845Z,88.97
2018-03-20T18:56:44.500Z,90.30
2018-03-20T18:59:11.162Z,89.57
2018-03-20T19:01:38.628Z,91.35
2018-03-20T19:04:05.316Z,92.88
2018-03-20T19:06:31.983Z,94.28
2018-03-20T19:08:58.681Z,96.65
2018-03-20T19:11:25.739Z,96.95
2018-03-20T19:13:52.353Z,97.80
2018-03-20T19:16:18.987Z,93.95
2018-03-20T19:18:45.617Z,92.43
2018-03-20T19:21:12.235Z,97.37
2018-03-20T19:23:39.637Z,93.05
2018-03-20T19:26:07.970Z,93.20
2018-03-20T19:28:34.575Z,89.37
2018-03-20T19:31:01.873Z,91.00
2018-03-20T19:33:28.497Z,92.18
2018-03-20T19:35:55.269Z,91.72
2018-03-20T19:38:21.873Z,98.55
2018-03-20T19:40:48.471Z,94.07
2018-03-20T19:43:15.095Z,89.78
2018-03-20T19:45:41.813Z,95.40
2018-03-20T19:48:08.428Z,91.25
2018-03-20T19:50:35.031Z,97.57
2018-03-20T19:53:01.728Z,95.12
2018-03-20T19:55:28.340Z,104.38
2018-03-20T19:57:55.035Z,92.18
2018-03-20T20:00:21.680Z,98.15
2018-03-20T20:02:48.294Z,93.35
2018-03-20T20:05:14.986Z,99.68
2018-03-20T20:07:41.580Z,99.90
2018-03-20T20:10:08.207Z,97.47
2018-03-20T20:12:34.951Z,101.82
2018-03-20T20:15:01.535Z,97.88
2018-03-20T20:17:28.186Z,93.00
2018-03-20T20:19:54.840Z,98.97
2018-03-20T20:22:21.494Z,98.18
2018-03-20T20:24:48.154Z,93.95
2018-03-20T20:27:15.083Z,94.70
2018-03-20T20:29:41.743Z,95.43
2018-03-20T20:32:08.346Z,89.25
2018-03-20T20:34:34.995Z,93.28
2018-03-20T20:37:01.607Z,93.50
2018-03-20T20:39:28.251Z,90.87
2018-03-20T20:41:54.925Z,89.97
2018-03-20T20:44:21.696Z,94.60
2018-03-20T20:46:48.390Z,88.18
2018-03-20T20:49:15.045Z,89.72
2018-03-20T20:51:41.662Z,88.53
2018-03-20T20:54:08.278Z,90.55
2018-03-20T20:56:34.937Z,92.82
2018-03-20T20:59:01.568Z,93.40
2018-03-20T21:01:28.179Z,93.28
2018-03-20T21:03:54.825Z,93.32
2018-03-20T21:06:21.572Z,94.87
2018-03-20T21:08:48.175Z,90.87
2018-03-20T21:11:14.797Z,94.40
2018-03-20T21:13:42.214Z,94.47
2018-03-20T21:16:08.979Z,90.62
2018-03-20T21:18:35.595Z,91.68
2018-03-20T21:21:02.905Z,88.85
2018-03-20T21:23:30.234Z,81.25
2018-03-20T21:25:56.822Z,84.22
2018-03-20T21:28:23.659Z,84.50
2018-03-20T21:30:50.274Z,83.90
2018-03-20T21:33:16.884Z,83.20
2018-03-20T21:35:43.503Z,86.00
2018-03-20T21:38:10.109Z,81.87
2018-03-20T21:40:36.634Z,84.65
2018-03-20T21:43:03.283Z,79.85
2018-03-20T21:45:30.589Z,80.90
2018-03-20T21:47:57.169Z,80.45
2018-03-20T21:50:23.776Z,79.78
2018-03-20T21:52:50.349Z,81.95
2018-03-20T21:55:17.087Z,83.87
2018-03-20T21:57:43.708Z,86.45
2018-03-20T22:00:10.267Z,83.70
2018-03-20T22:02:37.557Z,82.82
2018-03-20T22:05:04.322Z,82.30
2018-03-20T22:07:30.860Z,81.57
2018-03-20T22:09:58.216Z,87.93
2018-03-20T22:12:24.778Z,86.70
2018-03-20T22:14:52.628Z,90.53
2018-03-20T22:17:19.171Z,84.62
2018-03-20T22:19:45.740Z,83.47
2018-03-20T22:22:12.302Z,87.28
2018-03-20T22:24:38.882Z,84.68
2018-03-20T22:27:05.462Z,83.28
2018-03-20T22:29:32.071Z,81.20
2018-03-20T22:31:58.948Z,82.00
2018-03-20T22:34:25.576Z,78.78
2018-03-20T22:36:52.114Z,80.95
2018-03-20T22:39:18.714Z,80.38
2018-03-20T22:41:46.010Z,81.32
2018-03-20T22:44:12.553Z,78.60
2018-03-20T22:46:39.088Z,78.40
2018-03-20T22:49:05.886Z,75.32
2018-03-20T22:51:33.150Z,77.78
2018-03-20T22:53:59.728Z,80.93
2018-03-20T22:56:26.284Z,80.25
2018-03-20T22:58:52.839Z,77.95
2018-03-20T23:01:19.354Z,80.55
2018-03-20T23:03:45.935Z,86.90
2018-03-20T23:06:12.523Z,84.22
2018-03-20T23:08:39.787Z,80.87
2018-03-20T23:11:07.208Z,82.97
2018-03-20T23:13:33.743Z,86.28
2018-03-20T23:16:00.279Z,85.53
2018-03-20T23:18:26.819Z,82.15
2018-03-20T23:20:54.139Z,83.53
2018-03-20T23:23:20.696Z,99.45
2018-03-20T23:25:47.359Z,87.93
2018-03-20T23:28:13.898Z,78.07
2018-03-20T23:30:41.285Z,78.78
2018-03-20T23:33:08.566Z,80.70
2018-03-20T23:35:35.493Z,85.03
2018-03-20T23:38:02.770Z,86.72
2018-03-20T23:40:29.325Z,87.05
2018-03-20T23:42:55.850Z,86.50
2018-03-20T23:45:22.375Z,84.85
2018-03-20T23:47:48.923Z,83.00
2018-03-20T23:50:16.235Z,65.95
2018-03-20T23:52:42.851Z,85.40
2018-03-20T23:55:09.408Z,83.25
2018-03-20T23:57:36.700Z,79.90
